createdAt,value
2023-04-29T00:01:22.714Z,10.04
2023-04-29T00:03:51.177Z,9.97
2023-04-29T00:06:21.517Z,10.04
2023-04-29T00:08:49.783Z,10.01
2023-04-29T00:11:18.041Z,10.04
2023-04-29T00:13:46.288Z,9.96
2023-04-29T00:16:14.941Z,9.98
2023-04-29T00:18:43.154Z,10.03
2023-04-29T00:21:11.542Z,10.03
2023-04-29T00:23:41.161Z,9.97
2023-04-29T00:26:09.401Z,9.98
2023-04-29T00:28:37.872Z,10.00
2023-04-29T00:31:06.580Z,9.96
2023-04-29T00:33:34.967Z,9.94
2023-04-29T00:36:03.495Z,9.86
2023-04-29T00:38:31.781Z,9.76
2023-04-29T00:41:01.573Z,9.71
2023-04-29T00:43:29.843Z,9.74
2023-04-29T00:45:58.088Z,9.77
2023-04-29T00:48:27.805Z,9.78
2023-04-29T00:50:56.384Z,9.74
2023-04-29T00:53:24.870Z,9.78
2023-04-29T00:55:53.507Z,9.71
2023-04-29T00:58:24.110Z,9.68
2023-04-29T01:00:55.223Z,9.70
2023-04-29T01:03:25.149Z,9.76
2023-04-29T01:06:02.203Z,9.69
2023-04-29T01:08:39.304Z,9.71
2023-04-29T01:11:10.991Z,9.69
2023-04-29T01:13:47.694Z,9.75
2023-04-29T01:16:22.951Z,9.69
2023-04-29T01:18:56.790Z,9.69
2023-04-29T01:21:32.069Z,9.67
2023-04-29T01:24:02.045Z,9.60
2023-04-29T01:26:35.582Z,9.59
2023-04-29T01:29:34.386Z,9.56
2023-04-29T01:32:09.081Z,9.51
2023-04-29T01:34:46.075Z,9.64
2023-04-29T01:37:19.727Z,9.64
2023-04-29T01:40:01.921Z,9.66
2023-04-29T01:42:40.340Z,9.70
2023-04-29T01:45:17.135Z,9.68
2023-04-29T01:47:46.666Z,9.71
2023-04-29T01:50:15.846Z,9.65
2023-04-29T01:52:44.387Z,9.54
2023-04-29T01:55:13.971Z,9.54
2023-04-29T01:57:50.366Z,9.59
2023-04-29T02:00:28.586Z,9.53
2023-04-29T02:02:57.090Z,9.44
2023-04-29T02:05:32.519Z,9.53
2023-04-29T02:08:02.816Z,9.51
2023-04-29T02:10:34.625Z,9.53
2023-04-29T02:13:13.636Z,9.46
2023-04-29T02:15:43.059Z,9.48
2023-04-29T02:18:11.862Z,9.51
2023-04-29T02:20:40.136Z,9.47
2023-04-29T02:23:08.510Z,9.54
2023-04-29T02:25:38.980Z,9.44
2023-04-29T02:28:07.279Z,9.39
2023-04-29T02:30:35.497Z,9.36
2023-04-29T02:33:04.758Z,9.34
2023-04-29T02:35:33.985Z,9.40
2023-04-29T02:38:02.372Z,9.35
2023-04-29T02:40:30.589Z,9.40
2023-04-29T02:43:02.320Z,9.37
2023-04-29T02:45:30.710Z,9.42
2023-04-29T02:47:59.185Z,9.44
2023-04-29T02:50:28.651Z,9.40
2023-04-29T02:52:57.709Z,9.42
2023-04-29T02:55:28.747Z,9.39
2023-04-29T02:58:03.903Z,9.45
2023-04-29T03:00:32.280Z,9.44
2023-04-29T03:03:00.628Z,9.45
2023-04-29T03:05:29.026Z,9.32
2023-04-29T03:07:57.372Z,9.31
2023-04-29T03:10:25.853Z,9.32
2023-04-29T03:12:54.142Z,9.16
2023-04-29T03:15:23.921Z,9.18
2023-04-29T03:17:52.961Z,9.18
2023-04-29T03:20:21.586Z,9.07
2023-04-29T03:22:49.836Z,9.11
2023-04-29T03:25:18.706Z,9.08
2023-04-29T03:27:47.307Z,9.08
2023-04-29T03:30:15.715Z,9.11
2023-04-29T03:32:51.366Z,9.12
2023-04-29T03:35:19.922Z,9.04
2023-04-29T03:38:06.484Z,9.03
2023-04-29T03:40:36.550Z,9.03
2023-04-29T03:43:05.037Z,9.03
2023-04-29T03:45:33.360Z,8.97
2023-04-29T03:48:03.664Z,8.98
2023-04-29T03:50:32.389Z,9.02
2023-04-29T03:53:00.614Z,9.00
2023-04-29T03:55:28.949Z,9.04
2023-04-29T03:57:57.209Z,9.06
2023-04-29T04:00:26.602Z,8.98
2023-04-29T04:02:57.353Z,8.95
2023-04-29T04:05:27.366Z,8.96
2023-04-29T04:08:01.294Z,8.96
2023-04-29T04:10:35.639Z,8.92
2023-04-29T04:13:08.715Z,8.86
2023-04-29T04:15:37.117Z,8.98
2023-04-29T04:18:05.457Z,8.93
2023-04-29T04:20:38.229Z,8.91
2023-04-29T04:23:06.588Z,8.86
2023-04-29T04:25:34.844Z,8.90
2023-04-29T04:28:22.581Z,8.82
2023-04-29T04:31:00.131Z,8.91
2023-04-29T04:33:28.730Z,8.91
2023-04-29T04:35:58.350Z,8.82
2023-04-29T04:38:27.849Z,8.89
2023-04-29T04:40:56.673Z,8.78
2023-04-29T04:43:36.926Z,8.86
2023-04-29T04:46:11.963Z,8.82
2023-04-29T04:48:48.715Z,8.77
2023-04-29T04:51:19.208Z,8.78
2023-04-29T04:53:47.611Z,8.83
2023-04-29T04:56:24.878Z,8.86
2023-04-29T04:58:53.500Z,8.81
2023-04-29T05:01:21.746Z,8.82
2023-04-29T05:03:50.231Z,8.97
2023-04-29T05:06:19.879Z,8.88
2023-04-29T05:08:49.280Z,8.89
2023-04-29T05:11:19.294Z,8.83
2023-04-29T05:14:00.105Z,8.92
2023-04-29T05:16:29.086Z,9.00
2023-04-29T05:18:57.485Z,9.03
2023-04-29T05:21:32.574Z,9.04
2023-04-29T05:24:01.914Z,8.97
2023-04-29T05:26:30.328Z,8.97
2023-04-29T05:29:01.727Z,9.06
2023-04-29T05:31:34.149Z,9.07
2023-04-29T05:34:05.558Z,9.18
2023-04-29T05:36:35.230Z,9.16
2023-04-29T05:39:04.127Z,9.25
2023-04-29T05:41:32.811Z,9.16
2023-04-29T05:44:01.264Z,9.12
2023-04-29T05:46:29.618Z,9.20
2023-04-29T05:48:57.864Z,9.27
2023-04-29T05:51:28.320Z,9.27
2023-04-29T05:53:59.524Z,9.25
2023-04-29T05:56:28.748Z,9.31
2023-04-29T05:58:57.967Z,9.30
2023-04-29T06:01:26.279Z,9.47
2023-04-29T06:03:54.838Z,9.45
2023-04-29T06:06:41.645Z,9.44
2023-04-29T06:09:28.002Z,9.41
2023-04-29T06:12:00.783Z,9.41
2023-04-29T06:14:29.023Z,9.57
2023-04-29T06:16:57.652Z,9.45
2023-04-29T06:19:26.588Z,9.48
2023-04-29T06:21:54.963Z,9.45
2023-04-29T06:24:24.694Z,9.45
2023-04-29T06:26:53.167Z,9.54
2023-04-29T06:29:21.487Z,9.51
2023-04-29T06:31:49.766Z,9.51
2023-04-29T06:34:19.569Z,9.48
2023-04-29T06:37:10.764Z,9.52
2023-04-29T06:39:58.893Z,9.57
2023-04-29T06:42:43.732Z,9.40
2023-04-29T06:45:35.025Z,9.57
2023-04-29T06:48:08.763Z,9.68
2023-04-29T06:50:56.525Z,9.89
2023-04-29T06:53:25.705Z,9.91
2023-04-29T06:55:55.386Z,10.13
2023-04-29T06:58:23.762Z,10.24
2023-04-29T07:00:52.996Z,10.24
2023-04-29T07:03:23.856Z,10.31
2023-04-29T07:05:52.277Z,10.37
2023-04-29T07:08:20.539Z,10.50
2023-04-29T07:10:56.942Z,10.68
2023-04-29T07:13:25.536Z,10.68
2023-04-29T07:15:54.075Z,10.67
2023-04-29T07:18:22.400Z,10.88
2023-04-29T07:20:52.930Z,10.97
2023-04-29T07:23:21.368Z,11.20
2023-04-29T07:25:49.630Z,11.02
2023-04-29T07:28:19.315Z,11.03
2023-04-29T07:30:47.565Z,10.90
2023-04-29T07:33:16.042Z,11.02
2023-04-29T07:35:44.651Z,11.01
2023-04-29T07:38:13.005Z,10.97
2023-04-29T07:40:43.324Z,11.24
2023-04-29T07:43:11.679Z,11.40
2023-04-29T07:45:41.985Z,11.55
2023-04-29T07:48:10.386Z,11.91
2023-04-29T07:50:38.780Z,11.75
2023-04-29T07:53:07.512Z,11.67
2023-04-29T07:55:35.801Z,11.79
2023-04-29T07:58:04.062Z,12.05
2023-04-29T08:00:32.673Z,11.70
2023-04-29T08:03:02.469Z,11.71
2023-04-29T08:05:31.929Z,11.44
2023-04-29T08:08:00.448Z,11.25
2023-04-29T08:10:29.219Z,11.37
2023-04-29T08:12:57.456Z,11.26
2023-04-29T08:15:26.045Z,11.45
2023-04-29T08:17:54.899Z,11.46
2023-04-29T08:20:24.591Z,11.59
2023-04-29T08:22:53.455Z,11.34
2023-04-29T08:25:21.669Z,11.48
2023-04-29T08:27:49.905Z,11.87
2023-04-29T08:30:18.354Z,11.88
2023-04-29T08:32:46.616Z,12.00
2023-04-29T08:35:15.257Z,12.11
2023-04-29T08:37:45.009Z,11.88
2023-04-29T08:40:14.839Z,12.00
2023-04-29T08:42:48.822Z,12.14
2023-04-29T08:45:21.754Z,12.29
2023-04-29T08:47:51.458Z,12.50
2023-04-29T08:50:20.049Z,12.73
2023-04-29T08:52:51.949Z,12.58
2023-04-29T08:55:20.186Z,12.85
2023-04-29T08:57:51.882Z,12.64
2023-04-29T09:00:20.686Z,12.65
2023-04-29T09:02:52.494Z,12.49
2023-04-29T09:05:21.899Z,12.93
2023-04-29T09:07:52.604Z,13.09
2023-04-29T09:10:21.293Z,13.08
2023-04-29T09:12:49.534Z,12.99
2023-04-29T09:15:17.751Z,13.33
2023-04-29T09:17:47.109Z,13.19
2023-04-29T09:20:29.018Z,13.19
2023-04-29T09:23:00.312Z,13.30
2023-04-29T09:25:28.851Z,13.10
2023-04-29T09:27:57.210Z,13.41
2023-04-29T09:30:26.944Z,13.36
2023-04-29T09:33:07.163Z,13.36
2023-04-29T09:35:36.183Z,13.38
2023-04-29T09:38:13.502Z,13.70
2023-04-29T09:40:57.338Z,13.40
2023-04-29T09:43:27.564Z,13.08
2023-04-29T09:45:56.110Z,13.37
2023-04-29T09:48:32.562Z,14.19
2023-04-29T09:51:02.844Z,13.85
2023-04-29T09:53:32.903Z,14.24
2023-04-29T09:56:02.482Z,13.54
2023-04-29T09:58:34.258Z,13.82
2023-04-29T10:01:04.117Z,13.96
2023-04-29T10:03:35.077Z,13.89
2023-04-29T10:06:05.174Z,13.89
2023-04-29T10:08:35.854Z,13.52
2023-04-29T10:11:06.057Z,13.07
2023-04-29T10:13:38.458Z,13.44
2023-04-29T10:16:25.538Z,13.63
2023-04-29T10:18:56.477Z,13.82
2023-04-29T10:21:29.396Z,13.64
2023-04-29T10:24:00.532Z,13.88
2023-04-29T10:26:29.933Z,14.13
2023-04-29T10:29:00.108Z,14.05
2023-04-29T10:31:28.945Z,14.60
2023-04-29T10:33:58.647Z,14.30
2023-04-29T10:36:28.649Z,14.47
2023-04-29T10:39:01.941Z,14.23
2023-04-29T10:41:34.852Z,14.25
2023-04-29T10:44:04.494Z,14.40
2023-04-29T10:46:32.951Z,14.29
2023-04-29T10:49:03.819Z,14.37
2023-04-29T10:51:33.923Z,14.43
2023-04-29T10:54:08.105Z,14.33
2023-04-29T10:56:41.041Z,14.39
2023-04-29T10:59:16.639Z,15.13
2023-04-29T11:01:47.664Z,15.12
2023-04-29T11:04:17.080Z,15.19
2023-04-29T11:06:53.091Z,14.88
2023-04-29T11:09:27.929Z,15.10
2023-04-29T11:12:03.229Z,15.37
2023-04-29T11:14:33.760Z,15.69
2023-04-29T11:17:04.358Z,16.02
2023-04-29T11:19:34.287Z,14.97
2023-04-29T11:22:11.910Z,14.66
2023-04-29T11:24:52.828Z,15.08
2023-04-29T11:27:25.557Z,15.39
2023-04-29T11:29:58.589Z,15.75
2023-04-29T11:32:28.755Z,14.77
2023-04-29T11:34:57.507Z,14.93
2023-04-29T11:37:28.225Z,14.88
2023-04-29T11:40:02.256Z,14.69
2023-04-29T11:42:30.702Z,14.56
2023-04-29T11:45:00.477Z,14.38
2023-04-29T11:47:30.522Z,14.47
2023-04-29T11:50:06.507Z,14.68
2023-04-29T11:52:37.081Z,14.95
2023-04-29T11:55:07.503Z,14.75
2023-04-29T11:57:35.881Z,14.82
2023-04-29T12:00:05.735Z,14.65
2023-04-29T12:02:37.029Z,15.19
2023-04-29T12:05:08.645Z,15.52
2023-04-29T12:07:37.501Z,15.21
2023-04-29T12:10:10.255Z,15.21
2023-04-29T12:12:40.753Z,15.26
2023-04-29T12:15:10.834Z,15.55
2023-04-29T12:17:39.856Z,16.29
2023-04-29T12:20:09.415Z,17.14
2023-04-29T12:22:40.310Z,16.41
2023-04-29T12:25:11.389Z,16.51
2023-04-29T12:27:42.640Z,16.49
2023-04-29T12:30:12.104Z,15.77
2023-04-29T12:32:40.427Z,15.57
2023-04-29T12:35:16.650Z,15.60
2023-04-29T12:37:44.970Z,15.18
2023-04-29T12:40:17.249Z,15.06
2023-04-29T12:42:46.633Z,14.96
2023-04-29T12:45:28.536Z,14.99
2023-04-29T12:47:58.318Z,15.31
2023-04-29T12:50:34.447Z,15.73
2023-04-29T12:53:03.885Z,15.77
2023-04-29T12:55:35.554Z,15.77
2023-04-29T12:58:04.157Z,15.61
2023-04-29T13:00:32.575Z,16.20
2023-04-29T13:03:01.487Z,16.60
2023-04-29T13:05:30.028Z,16.33
2023-04-29T13:07:58.479Z,15.99
2023-04-29T13:10:28.359Z,15.92
2023-04-29T13:12:58.027Z,16.33
2023-04-29T13:15:26.772Z,16.49
2023-04-29T13:17:58.469Z,16.94
2023-04-29T13:20:26.962Z,17.22
2023-04-29T13:22:55.298Z,17.33
2023-04-29T13:25:23.520Z,16.87
2023-04-29T13:27:51.867Z,17.07
2023-04-29T13:30:24.561Z,16.78
2023-04-29T13:32:55.459Z,16.93
2023-04-29T13:35:27.060Z,17.30
2023-04-29T13:37:55.323Z,16.93
2023-04-29T13:40:27.885Z,17.04
2023-04-29T13:43:04.967Z,16.71
2023-04-29T13:45:39.767Z,17.31
2023-04-29T13:48:26.253Z,17.34
2023-04-29T13:56:53.320Z,17.36
2023-04-29T13:59:36.244Z,16.50
2023-04-29T14:04:12.599Z,16.02
2023-04-29T14:06:40.896Z,16.24
2023-04-29T14:09:09.133Z,16.05
2023-04-29T14:11:37.440Z,16.18
2023-04-29T14:14:05.811Z,16.29
2023-04-29T14:16:34.606Z,16.18
2023-04-29T14:19:05.022Z,16.42
2023-04-29T14:21:33.882Z,16.64
2023-04-29T14:24:03.691Z,16.16
2023-04-29T14:26:32.349Z,15.93
2023-04-29T14:29:01.211Z,16.16
2023-04-29T14:31:31.033Z,15.86
2023-04-29T14:34:00.024Z,15.49
2023-04-29T14:36:29.881Z,15.41
2023-04-29T14:38:58.166Z,15.52
2023-04-29T14:41:26.513Z,15.56
2023-04-29T14:43:54.879Z,15.86
2023-04-29T14:46:23.443Z,15.93
2023-04-29T14:48:51.924Z,16.01
2023-04-29T14:51:20.515Z,15.93
2023-04-29T14:53:50.232Z,15.82
2023-04-29T14:56:18.660Z,15.52
2023-04-29T14:58:46.916Z,15.80
2023-04-29T15:01:15.236Z,16.12
2023-04-29T15:03:45.068Z,16.13
2023-04-29T15:06:14.041Z,16.36
2023-04-29T15:08:42.328Z,16.40
2023-04-29T15:11:11.940Z,16.44
2023-04-29T15:13:40.269Z,16.58
2023-04-29T15:16:09.037Z,16.49
2023-04-29T15:18:37.275Z,16.59
2023-04-29T15:21:05.787Z,16.48
2023-04-29T15:23:34.168Z,15.99
2023-04-29T15:26:02.403Z,15.84
2023-04-29T15:28:32.117Z,16.01
2023-04-29T15:31:03.196Z,16.26
2023-04-29T15:33:31.571Z,16.06
2023-04-29T15:35:59.859Z,15.85
2023-04-29T15:38:29.583Z,15.68
2023-04-29T15:41:01.022Z,15.75
2023-04-29T15:46:00.303Z,16.21
2023-04-29T15:48:28.629Z,15.77
2023-04-29T15:50:57.050Z,15.75
2023-04-29T15:53:25.273Z,15.65
2023-04-29T15:55:53.557Z,15.51
2023-04-29T15:58:21.863Z,15.01
2023-04-29T16:00:53.062Z,15.12
2023-04-29T16:03:23.011Z,15.21
2023-04-29T16:05:51.465Z,15.30
2023-04-29T16:08:19.754Z,15.17
2023-04-29T16:10:49.670Z,15.22
2023-04-29T16:13:17.989Z,15.28
2023-04-29T16:15:46.342Z,15.36
2023-04-29T16:18:14.931Z,15.09
2023-04-29T16:20:44.992Z,15.16
2023-04-29T16:23:13.242Z,15.17
2023-04-29T16:25:43.060Z,15.03
2023-04-29T16:28:11.349Z,15.49
2023-04-29T16:30:39.612Z,15.13
2023-04-29T16:33:07.832Z,15.07
2023-04-29T16:35:37.242Z,15.10
2023-04-29T16:38:06.858Z,15.39
2023-04-29T16:40:35.073Z,15.26
2023-04-29T16:43:03.362Z,15.16
2023-04-29T16:45:31.754Z,15.11
2023-04-29T16:48:00.964Z,15.25
2023-04-29T16:50:29.363Z,15.31
2023-04-29T16:52:57.644Z,14.97
2023-04-29T16:55:27.289Z,14.73
2023-04-29T16:57:55.581Z,15.81
2023-04-29T17:00:23.984Z,16.35
2023-04-29T17:02:53.024Z,16.24
2023-04-29T17:05:21.737Z,16.01
2023-04-29T17:07:50.299Z,15.73
2023-04-29T17:10:18.736Z,15.72
2023-04-29T17:12:48.415Z,15.33
2023-04-29T17:15:16.779Z,14.84
2023-04-29T17:17:46.684Z,14.67
2023-04-29T17:20:15.190Z,14.63
2023-04-29T17:22:43.472Z,14.62
2023-04-29T17:25:14.852Z,14.30
2023-04-29T17:27:44.462Z,14.22
2023-04-29T17:30:14.899Z,14.13
2023-04-29T17:32:44.503Z,14.09
2023-04-29T17:35:12.874Z,13.99
2023-04-29T17:37:41.272Z,13.75
2023-04-29T17:40:10.629Z,13.58
2023-04-29T17:42:38.932Z,13.54
2023-04-29T17:45:08.518Z,13.47
2023-04-29T17:47:38.193Z,13.50
2023-04-29T17:50:07.545Z,13.46
2023-04-29T17:52:35.974Z,13.47
2023-04-29T17:55:04.258Z,13.44
2023-04-29T17:57:32.769Z,13.34
2023-04-29T18:00:01.514Z,13.20
2023-04-29T18:02:29.760Z,13.16
2023-04-29T18:04:59.372Z,13.04
2023-04-29T18:07:27.680Z,13.06
2023-04-29T18:09:56.110Z,13.06
2023-04-29T18:12:24.965Z,12.94
2023-04-29T18:14:53.452Z,12.94
2023-04-29T18:17:21.691Z,12.87
2023-04-29T18:19:50.593Z,12.80
2023-04-29T18:22:20.259Z,12.71
2023-04-29T18:24:49.367Z,12.62
2023-04-29T18:27:17.650Z,12.47
2023-04-29T18:29:46.369Z,12.43
2023-04-29T18:32:14.646Z,12.37
2023-04-29T18:34:42.963Z,12.28
2023-04-29T18:37:11.221Z,12.18
2023-04-29T18:39:40.932Z,12.17
2023-04-29T18:42:09.647Z,12.11
2023-04-29T18:44:39.000Z,12.02
2023-04-29T18:47:07.296Z,11.97
2023-04-29T18:49:38.018Z,11.90
2023-04-29T18:52:06.650Z,11.85
2023-04-29T18:54:35.254Z,11.79
2023-04-29T18:57:05.112Z,11.76
2023-04-29T18:59:35.961Z,11.69
2023-04-29T19:02:06.133Z,11.63
2023-04-29T19:04:35.521Z,11.61
2023-04-29T19:07:05.897Z,11.52
2023-04-29T19:09:34.205Z,11.48
2023-04-29T19:12:04.935Z,11.46
2023-04-29T19:14:34.182Z,11.31
2023-04-29T19:17:02.828Z,11.31
2023-04-29T19:19:31.330Z,11.25
2023-04-29T19:21:59.720Z,11.22
2023-04-29T19:24:27.999Z,11.19
2023-04-29T19:26:56.211Z,11.13
2023-04-29T19:29:25.855Z,11.01
2023-04-29T19:31:54.200Z,11.03
2023-04-29T19:34:22.561Z,11.03
2023-04-29T19:36:51.282Z,10.97
2023-04-29T19:39:19.533Z,10.85
2023-04-29T19:41:47.808Z,10.86
2023-04-29T19:44:16.097Z,10.82
2023-04-29T19:46:45.809Z,10.72
2023-04-29T19:49:14.673Z,10.70
2023-04-29T19:51:42.965Z,10.65
2023-04-29T19:54:11.227Z,10.58
2023-04-29T19:56:39.552Z,10.48
2023-04-29T19:59:07.838Z,10.52
2023-04-29T20:01:36.165Z,10.48
2023-04-29T20:04:05.836Z,10.41
2023-04-29T20:06:35.164Z,10.38
2023-04-29T20:09:03.562Z,10.37
2023-04-29T20:11:32.029Z,10.35
2023-04-29T20:14:00.311Z,10.35
2023-04-29T20:16:29.999Z,10.33
2023-04-29T20:18:58.484Z,10.24
2023-04-29T20:21:28.630Z,10.22
2023-04-29T20:23:57.127Z,10.19
2023-04-29T20:26:25.418Z,10.14
2023-04-29T20:28:54.012Z,10.10
2023-04-29T20:31:22.302Z,10.07
2023-04-29T20:33:50.860Z,10.07
2023-04-29T20:36:19.455Z,9.96
2023-04-29T20:38:49.202Z,9.96
2023-04-29T20:41:17.527Z,9.89
2023-04-29T20:43:45.774Z,9.93
2023-04-29T20:46:14.051Z,9.89
2023-04-29T20:48:42.383Z,9.82
2023-04-29T20:51:12.310Z,9.83
2023-04-29T20:53:40.759Z,9.75
2023-04-29T20:56:11.143Z,9.79
2023-04-29T20:58:39.525Z,9.72
2023-04-29T21:01:08.086Z,9.72
2023-04-29T21:03:36.731Z,9.66
2023-04-29T21:06:05.309Z,9.67
2023-04-29T21:08:33.548Z,9.64
2023-04-29T21:11:01.898Z,9.62
2023-04-29T21:13:31.573Z,9.62
2023-04-29T21:15:59.880Z,9.54
2023-04-29T21:18:28.193Z,9.53
2023-04-29T21:20:56.668Z,9.54
2023-04-29T21:23:24.910Z,9.59
2023-04-29T21:25:53.206Z,9.50
2023-04-29T21:28:21.482Z,9.44
2023-04-29T21:30:51.119Z,9.42
2023-04-29T21:33:19.333Z,9.34
2023-04-29T21:35:51.257Z,9.34
2023-04-29T21:38:19.706Z,9.37
2023-04-29T21:40:48.791Z,9.32
2023-04-29T21:43:18.036Z,9.31
2023-04-29T21:45:46.774Z,9.30
2023-04-29T21:48:18.162Z,9.23
2023-04-29T21:50:46.524Z,9.24
2023-04-29T21:53:16.560Z,9.20
2023-04-29T21:55:45.100Z,9.18
2023-04-29T21:58:13.361Z,9.14
2023-04-29T22:00:47.973Z,9.15
2023-04-29T22:03:17.966Z,9.12
2023-04-29T22:05:46.283Z,9.10
2023-04-29T22:08:14.834Z,9.07
2023-04-29T22:10:43.710Z,8.96
2023-04-29T22:13:12.775Z,9.02
2023-04-29T22:15:41.162Z,9.01
2023-04-29T22:18:09.481Z,9.00
2023-04-29T22:20:39.578Z,8.97
2023-04-29T22:23:07.972Z,8.94
2023-04-29T22:25:36.251Z,8.91
2023-04-29T22:28:04.720Z,8.87
2023-04-29T22:30:33.051Z,8.88
2023-04-29T22:33:01.746Z,8.81
2023-04-29T22:35:30.148Z,8.80
2023-04-29T22:37:59.839Z,8.83
2023-04-29T22:40:28.401Z,8.73
2023-04-29T22:42:56.675Z,8.73
2023-04-29T22:45:25.008Z,8.67
2023-04-29T22:47:53.327Z,8.59
2023-04-29T22:50:21.617Z,8.52
2023-04-29T22:52:50.194Z,8.44
2023-04-29T22:55:19.796Z,8.36
2023-04-29T22:57:51.888Z,8.29
2023-04-29T23:00:20.274Z,8.22
2023-04-29T23:02:48.606Z,8.19
2023-04-29T23:05:18.109Z,8.14
2023-04-29T23:07:46.374Z,8.22
2023-04-29T23:10:14.602Z,8.20
2023-04-29T23:12:44.501Z,8.16
2023-04-29T23:15:12.876Z,8.11
2023-04-29T23:17:41.323Z,8.07
2023-04-29T23:20:10.467Z,8.12
2023-04-29T23:22:38.674Z,8.06
2023-04-29T23:25:07.734Z,8.09
2023-04-29T23:27:35.946Z,8.01
2023-04-29T23:30:06.538Z,8.13
2023-04-29T23:32:34.901Z,8.08
2023-04-29T23:35:03.166Z,8.06
2023-04-29T23:37:31.539Z,8.06
2023-04-29T23:39:59.814Z,8.07
2023-04-29T23:42:28.024Z,8.07
2023-04-29T23:44:56.368Z,8.07
2023-04-29T23:47:26.098Z,7.98
2023-04-29T23:49:54.603Z,8.14
2023-04-29T23:52:23.269Z,8.26
2023-04-29T23:54:51.712Z,8.39
2023-04-29T23:57:19.989Z,8.43
2023-04-29T23:59:48.200Z,8.41
